Terminal Aerodrome Forecast
Issued by NWS

Home | Current Version | Previous Version | Text Only | Print | Product List | Glossary On
Versions: 1 2 3 4 5 6 7 8 9 10 11 12 13 14 15 16 17 18
000
FTUS41 KOKX 050527
TAFSWF
TAF
KSWF 050527Z 0506/0612 VRB03KT 4SM BR FEW005
      TEMPO 0508/0511 2SM BR BKN005
     FM051300 28005KT P6SM FEW050
     FM060000 VRB02KT P6SM SKC
     FM060600 VRB02KT 3SM BR SCT005
      AMD NOT SKED=

USA.gov is the U.S. government's official web portal to all federal, state and local government web resources and services.